sensor_id;sensor_type;location;lat;lon;timestamp;temperature;humidity
46356;DHT22;32066;49.474;11.106;2023-07-20T00:01:20;21.00;99.60
46356;DHT22;32066;49.474;11.106;2023-07-20T00:03:48;20.90;99.90
46356;DHT22;32066;49.474;11.106;2023-07-20T00:06:20;21.00;99.90
46356;DHT22;32066;49.474;11.106;2023-07-20T00:08:49;21.00;99.90
46356;DHT22;32066;49.474;11.106;2023-07-20T00:11:18;21.00;99.90
46356;DHT22;32066;49.474;11.106;2023-07-20T00:13:46;20.90;99.90
46356;DHT22;32066;49.474;11.106;2023-07-20T00:16:15;21.00;99.90
46356;DHT22;32066;49.474;11.106;2023-07-20T00:18:46;21.00;99.80
46356;DHT22;32066;49.474;11.106;2023-07-20T00:21:29;20.90;99.70
46356;DHT22;32066;49.474;11.106;2023-07-20T00:24:07;20.80;99.80
46356;DHT22;32066;49.474;11.106;2023-07-20T00:26:36;20.80;99.90
46356;DHT22;32066;49.474;11.106;2023-07-20T00:29:05;20.80;99.90
46356;DHT22;32066;49.474;11.106;2023-07-20T00:31:34;20.70;99.90
46356;DHT22;32066;49.474;11.106;2023-07-20T00:34:05;20.80;99.90
46356;DHT22;32066;49.474;11.106;2023-07-20T00:36:34;20.70;99.90
46356;DHT22;32066;49.474;11.106;2023-07-20T00:39:03;20.70;99.90
46356;DHT22;32066;49.474;11.106;2023-07-20T00:41:31;20.80;99.90
46356;DHT22;32066;49.474;11.106;2023-07-20T00:44:01;20.90;99.90
46356;DHT22;32066;49.474;11.106;2023-07-20T00:46:31;20.90;99.70
46356;DHT22;32066;49.474;11.106;2023-07-20T00:49:01;20.90;99.80
46356;DHT22;32066;49.474;11.106;2023-07-20T00:51:32;21.00;99.90
46356;DHT22;32066;49.474;11.106;2023-07-20T00:54:01;21.10;99.80
46356;DHT22;32066;49.474;11.106;2023-07-20T00:56:30;21.00;99.80
46356;DHT22;32066;49.474;11.106;2023-07-20T00:58:59;21.00;99.70
46356;DHT22;32066;49.474;11.106;2023-07-20T01:01:28;21.00;99.70
46356;DHT22;32066;49.474;11.106;2023-07-20T01:03:56;20.90;99.80
46356;DHT22;32066;49.474;11.106;2023-07-20T01:06:34;20.80;99.90
46356;DHT22;32066;49.474;11.106;2023-07-20T01:09:11;20.90;99.90
46356;DHT22;32066;49.474;11.106;2023-07-20T01:11:49;20.90;99.70
46356;DHT22;32066;49.474;11.106;2023-07-20T01:14:20;20.90;99.80
46356;DHT22;32066;49.474;11.106;2023-07-20T01:16:51;20.90;99.70
46356;DHT22;32066;49.474;11.106;2023-07-20T01:19:20;20.90;99.70
46356;DHT22;32066;49.474;11.106;2023-07-20T01:21:57;20.90;99.60
46356;DHT22;32066;49.474;11.106;2023-07-20T01:30:47;20.90;99.90
46356;DHT22;32066;49.474;11.106;2023-07-20T01:33:24;21.00;99.90
46356;DHT22;32066;49.474;11.106;2023-07-20T01:35:56;20.90;99.70
46356;DHT22;32066;49.474;11.106;2023-07-20T01:38:26;20.90;99.90
46356;DHT22;32066;49.474;11.106;2023-07-20T01:40:55;21.00;99.90
46356;DHT22;32066;49.474;11.106;2023-07-20T01:43:24;21.00;99.90
46356;DHT22;32066;49.474;11.106;2023-07-20T01:45:53;21.00;99.90
46356;DHT22;32066;49.474;11.106;2023-07-20T01:48:24;20.90;99.90
46356;DHT22;32066;49.474;11.106;2023-07-20T01:50:53;21.00;99.90
46356;DHT22;32066;49.474;11.106;2023-07-20T01:53:21;21.00;99.90
46356;DHT22;32066;49.474;11.106;2023-07-20T01:55:52;20.90;99.90
46356;DHT22;32066;49.474;11.106;2023-07-20T01:58:21;20.80;99.90
46356;DHT22;32066;49.474;11.106;2023-07-20T02:00:50;20.70;99.90
46356;DHT22;32066;49.474;11.106;2023-07-20T02:03:19;20.70;99.90
46356;DHT22;32066;49.474;11.106;2023-07-20T02:05:52;20.60;99.90
46356;DHT22;32066;49.474;11.106;2023-07-20T02:08:22;20.60;99.90
46356;DHT22;32066;49.474;11.106;2023-07-20T02:10:51;20.60;99.90
46356;DHT22;32066;49.474;11.106;2023-07-20T02:13:20;20.50;99.90
46356;DHT22;32066;49.474;11.106;2023-07-20T02:15:49;20.40;99.90
46356;DHT22;32066;49.474;11.106;2023-07-20T02:18:17;20.40;99.90
46356;DHT22;32066;49.474;11.106;2023-07-20T02:20:46;20.20;99.90
46356;DHT22;32066;49.474;11.106;2023-07-20T02:23:17;20.00;99.90
46356;DHT22;32066;49.474;11.106;2023-07-20T02:25:46;20.00;99.90
46356;DHT22;32066;49.474;11.106;2023-07-20T02:28:15;20.10;99.90
46356;DHT22;32066;49.474;11.106;2023-07-20T02:30:43;20.00;99.90
46356;DHT22;32066;49.474;11.106;2023-07-20T02:33:12;19.90;99.90
46356;DHT22;32066;49.474;11.106;2023-07-20T02:35:41;19.80;99.90
46356;DHT22;32066;49.474;11.106;2023-07-20T02:38:09;19.70;99.90
46356;DHT22;32066;49.474;11.106;2023-07-20T02:40:41;19.60;99.90
46356;DHT22;32066;49.474;11.106;2023-07-20T02:43:09;19.60;99.90
46356;DHT22;32066;49.474;11.106;2023-07-20T02:45:40;19.60;99.90
46356;DHT22;32066;49.474;11.106;2023-07-20T02:48:09;19.50;99.90
46356;DHT22;32066;49.474;11.106;2023-07-20T02:50:40;19.60;99.90
46356;DHT22;32066;49.474;11.106;2023-07-20T02:53:09;19.60;99.90
46356;DHT22;32066;49.474;11.106;2023-07-20T02:55:40;19.70;99.90
46356;DHT22;32066;49.474;11.106;2023-07-20T02:58:09;19.70;99.90
46356;DHT22;32066;49.474;11.106;2023-07-20T03:00:37;19.70;99.90
46356;DHT22;32066;49.474;11.106;2023-07-20T03:03:06;19.50;99.90
46356;DHT22;32066;49.474;11.106;2023-07-20T03:05:35;19.50;99.90
46356;DHT22;32066;49.474;11.106;2023-07-20T03:08:05;19.40;99.90
46356;DHT22;32066;49.474;11.106;2023-07-20T03:10:41;19.30;99.90
46356;DHT22;32066;49.474;11.106;2023-07-20T03:13:09;19.30;99.90
46356;DHT22;32066;49.474;11.106;2023-07-20T03:15:38;19.30;99.90
46356;DHT22;32066;49.474;11.106;2023-07-20T03:18:07;19.40;99.90
46356;DHT22;32066;49.474;11.106;2023-07-20T03:20:36;19.30;99.90
46356;DHT22;32066;49.474;11.106;2023-07-20T03:23:05;19.20;99.90
46356;DHT22;32066;49.474;11.106;2023-07-20T03:25:34;19.20;99.90
46356;DHT22;32066;49.474;11.106;2023-07-20T03:28:06;19.10;99.90
46356;DHT22;32066;49.474;11.106;2023-07-20T03:30:35;19.10;99.90
46356;DHT22;32066;49.474;11.106;2023-07-20T03:33:03;19.10;99.90
46356;DHT22;32066;49.474;11.106;2023-07-20T03:35:32;19.00;99.90
46356;DHT22;32066;49.474;11.106;2023-07-20T03:38:00;19.00;99.90
46356;DHT22;32066;49.474;11.106;2023-07-20T03:40:30;19.00;99.90
46356;DHT22;32066;49.474;11.106;2023-07-20T03:42:58;19.00;99.90
46356;DHT22;32066;49.474;11.106;2023-07-20T03:45:30;19.00;99.90
46356;DHT22;32066;49.474;11.106;2023-07-20T03:47:59;18.90;99.90
46356;DHT22;32066;49.474;11.106;2023-07-20T03:50:28;18.80;99.90
46356;DHT22;32066;49.474;11.106;2023-07-20T03:52:56;18.70;99.90
46356;DHT22;32066;49.474;11.106;2023-07-20T03:55:25;18.80;99.90
46356;DHT22;32066;49.474;11.106;2023-07-20T03:57:54;18.80;99.90
46356;DHT22;32066;49.474;11.106;2023-07-20T04:00:23;18.80;99.90
46356;DHT22;32066;49.474;11.106;2023-07-20T04:02:54;18.80;99.90
46356;DHT22;32066;49.474;11.106;2023-07-20T04:05:23;18.90;99.90
46356;DHT22;32066;49.474;11.106;2023-07-20T04:07:51;18.90;99.90
46356;DHT22;32066;49.474;11.106;2023-07-20T04:10:20;18.90;99.90
46356;DHT22;32066;49.474;11.106;2023-07-20T04:12:51;18.80;99.90
46356;DHT22;32066;49.474;11.106;2023-07-20T04:15:20;18.80;99.90
46356;DHT22;32066;49.474;11.106;2023-07-20T04:17:49;18.70;99.90
46356;DHT22;32066;49.474;11.106;2023-07-20T04:20:20;18.70;99.90
46356;DHT22;32066;49.474;11.106;2023-07-20T04:22:49;18.70;99.90
46356;DHT22;32066;49.474;11.106;2023-07-20T04:25:18;18.80;99.90
46356;DHT22;32066;49.474;11.106;2023-07-20T04:27:47;18.90;99.90
46356;DHT22;32066;49.474;11.106;2023-07-20T04:30:18;18.80;99.90
46356;DHT22;32066;49.474;11.106;2023-07-20T04:32:48;18.70;99.90
46356;DHT22;32066;49.474;11.106;2023-07-20T04:35:49;18.70;99.90
46356;DHT22;32066;49.474;11.106;2023-07-20T04:38:30;18.70;99.90
46356;DHT22;32066;49.474;11.106;2023-07-20T04:41:07;18.80;99.90
46356;DHT22;32066;49.474;11.106;2023-07-20T04:43:41;18.70;99.90
46356;DHT22;32066;49.474;11.106;2023-07-20T04:46:11;18.80;99.90
46356;DHT22;32066;49.474;11.106;2023-07-20T04:48:41;18.70;99.90
46356;DHT22;32066;49.474;11.106;2023-07-20T04:51:12;18.70;99.90
46356;DHT22;32066;49.474;11.106;2023-07-20T04:53:43;18.70;99.90
46356;DHT22;32066;49.474;11.106;2023-07-20T04:56:12;18.80;99.90
46356;DHT22;32066;49.474;11.106;2023-07-20T04:58:40;18.70;99.90
46356;DHT22;32066;49.474;11.106;2023-07-20T05:01:09;18.70;99.90
46356;DHT22;32066;49.474;11.106;2023-07-20T05:03:39;18.60;99.90
46356;DHT22;32066;49.474;11.106;2023-07-20T05:06:12;18.50;99.90
46356;DHT22;32066;49.474;11.106;2023-07-20T05:08:40;18.50;99.90
46356;DHT22;32066;49.474;11.106;2023-07-20T05:11:10;18.60;99.90
46356;DHT22;32066;49.474;11.106;2023-07-20T05:13:40;18.70;99.90
46356;DHT22;32066;49.474;11.106;2023-07-20T05:16:08;18.80;99.90
46356;DHT22;32066;49.474;11.106;2023-07-20T05:18:37;18.80;99.90
46356;DHT22;32066;49.474;11.106;2023-07-20T05:21:06;18.90;99.90
46356;DHT22;32066;49.474;11.106;2023-07-20T05:23:37;18.90;99.90
46356;DHT22;32066;49.474;11.106;2023-07-20T05:26:06;18.80;99.90
46356;DHT22;32066;49.474;11.106;2023-07-20T05:28:35;18.80;99.90
46356;DHT22;32066;49.474;11.106;2023-07-20T05:31:03;18.90;99.90
46356;DHT22;32066;49.474;11.106;2023-07-20T05:33:33;18.80;99.90
46356;DHT22;32066;49.474;11.106;2023-07-20T05:36:02;18.80;99.90
46356;DHT22;32066;49.474;11.106;2023-07-20T05:38:30;18.70;99.90
46356;DHT22;32066;49.474;11.106;2023-07-20T05:41:02;18.80;99.90
46356;DHT22;32066;49.474;11.106;2023-07-20T05:43:30;18.80;99.90
46356;DHT22;32066;49.474;11.106;2023-07-20T05:45:59;18.70;99.90
46356;DHT22;32066;49.474;11.106;2023-07-20T05:48:28;18.80;99.90
46356;DHT22;32066;49.474;11.106;2023-07-20T05:50:56;18.70;99.90
46356;DHT22;32066;49.474;11.106;2023-07-20T05:53:25;18.70;99.90
46356;DHT22;32066;49.474;11.106;2023-07-20T05:55:54;18.60;99.90
46356;DHT22;32066;49.474;11.106;2023-07-20T05:58:25;18.60;99.90
46356;DHT22;32066;49.474;11.106;2023-07-20T06:00:54;18.60;99.90
46356;DHT22;32066;49.474;11.106;2023-07-20T06:03:22;18.60;99.90
46356;DHT22;32066;49.474;11.106;2023-07-20T06:05:51;18.70;99.90
46356;DHT22;32066;49.474;11.106;2023-07-20T06:08:19;18.70;99.90
46356;DHT22;32066;49.474;11.106;2023-07-20T06:10:50;18.60;99.90
46356;DHT22;32066;49.474;11.106;2023-07-20T06:13:19;18.70;99.90
46356;DHT22;32066;49.474;11.106;2023-07-20T06:15:51;18.90;99.90
46356;DHT22;32066;49.474;11.106;2023-07-20T06:18:21;18.90;99.90
46356;DHT22;32066;49.474;11.106;2023-07-20T06:20:50;19.00;99.90
46356;DHT22;32066;49.474;11.106;2023-07-20T06:23:19;19.10;99.90
46356;DHT22;32066;49.474;11.106;2023-07-20T06:25:48;19.10;99.90
46356;DHT22;32066;49.474;11.106;2023-07-20T06:28:17;19.10;99.90
46356;DHT22;32066;49.474;11.106;2023-07-20T06:30:46;20.10;99.90
46356;DHT22;32066;49.474;11.106;2023-07-20T06:33:19;20.60;99.70
46356;DHT22;32066;49.474;11.106;2023-07-20T06:35:47;20.30;97.80
46356;DHT22;32066;49.474;11.106;2023-07-20T06:38:18;20.00;98.50
46356;DHT22;32066;49.474;11.106;2023-07-20T06:40:48;20.00;98.50
46356;DHT22;32066;49.474;11.106;2023-07-20T06:43:17;19.90;98.30
46356;DHT22;32066;49.474;11.106;2023-07-20T06:45:51;19.60;99.00
46356;DHT22;32066;49.474;11.106;2023-07-20T06:48:23;19.50;98.60
46356;DHT22;32066;49.474;11.106;2023-07-20T06:50:52;19.40;98.70
46356;DHT22;32066;49.474;11.106;2023-07-20T06:53:20;19.40;98.50
46356;DHT22;32066;49.474;11.106;2023-07-20T06:55:49;19.40;98.60
46356;DHT22;32066;49.474;11.106;2023-07-20T06:58:18;19.50;98.40
46356;DHT22;32066;49.474;11.106;2023-07-20T07:00:47;19.60;98.10
46356;DHT22;32066;49.474;11.106;2023-07-20T07:03:16;19.70;97.70
46356;DHT22;32066;49.474;11.106;2023-07-20T07:05:47;19.80;97.80
46356;DHT22;32066;49.474;11.106;2023-07-20T07:08:16;19.90;97.30
46356;DHT22;32066;49.474;11.106;2023-07-20T07:10:44;19.90;96.70
46356;DHT22;32066;49.474;11.106;2023-07-20T07:13:13;19.90;96.40
46356;DHT22;32066;49.474;11.106;2023-07-20T07:15:42;19.90;95.60
46356;DHT22;32066;49.474;11.106;2023-07-20T07:18:12;20.00;95.40
46356;DHT22;32066;49.474;11.106;2023-07-20T07:20:40;19.90;95.70
46356;DHT22;32066;49.474;11.106;2023-07-20T07:23:11;20.00;95.60
46356;DHT22;32066;49.474;11.106;2023-07-20T07:25:42;20.00;95.60
46356;DHT22;32066;49.474;11.106;2023-07-20T07:28:10;19.90;94.30
46356;DHT22;32066;49.474;11.106;2023-07-20T07:30:39;20.10;94.30
46356;DHT22;32066;49.474;11.106;2023-07-20T07:33:08;20.20;94.20
46356;DHT22;32066;49.474;11.106;2023-07-20T07:35:37;20.30;93.70
46356;DHT22;32066;49.474;11.106;2023-07-20T07:38:06;20.30;93.30
46356;DHT22;32066;49.474;11.106;2023-07-20T07:40:38;20.30;92.80
46356;DHT22;32066;49.474;11.106;2023-07-20T07:45:37;20.20;92.00
46356;DHT22;32066;49.474;11.106;2023-07-20T07:48:06;20.20;92.10
46356;DHT22;32066;49.474;11.106;2023-07-20T07:50:37;20.10;92.60
46356;DHT22;32066;49.474;11.106;2023-07-20T07:53:06;20.20;92.30
46356;DHT22;32066;49.474;11.106;2023-07-20T07:55:38;20.30;92.30
46356;DHT22;32066;49.474;11.106;2023-07-20T07:58:07;20.50;91.80
46356;DHT22;32066;49.474;11.106;2023-07-20T08:00:36;20.70;91.60
46356;DHT22;32066;49.474;11.106;2023-07-20T08:03:06;20.70;90.40
46356;DHT22;32066;49.474;11.106;2023-07-20T08:05:34;20.80;90.50
46356;DHT22;32066;49.474;11.106;2023-07-20T08:08:03;20.60;90.60
46356;DHT22;32066;49.474;11.106;2023-07-20T08:10:32;20.40;90.60
46356;DHT22;32066;49.474;11.106;2023-07-20T08:13:03;20.50;88.40
46356;DHT22;32066;49.474;11.106;2023-07-20T08:15:32;20.50;87.40
46356;DHT22;32066;49.474;11.106;2023-07-20T08:18:01;20.60;87.50
46356;DHT22;32066;49.474;11.106;2023-07-20T08:20:29;20.60;87.40
46356;DHT22;32066;49.474;11.106;2023-07-20T08:23:01;20.60;87.90
46356;DHT22;32066;49.474;11.106;2023-07-20T08:25:30;20.80;88.80
46356;DHT22;32066;49.474;11.106;2023-07-20T08:27:58;20.90;88.10
46356;DHT22;32066;49.474;11.106;2023-07-20T08:30:40;21.00;87.60
46356;DHT22;32066;49.474;11.106;2023-07-20T08:33:09;21.10;87.40
46356;DHT22;32066;49.474;11.106;2023-07-20T08:35:38;21.10;85.80
46356;DHT22;32066;49.474;11.106;2023-07-20T08:38:06;21.00;86.50
46356;DHT22;32066;49.474;11.106;2023-07-20T08:40:40;20.80;86.50
46356;DHT22;32066;49.474;11.106;2023-07-20T08:43:10;20.80;85.90
46356;DHT22;32066;49.474;11.106;2023-07-20T08:45:42;20.80;85.30
46356;DHT22;32066;49.474;11.106;2023-07-20T08:48:12;20.90;86.00
46356;DHT22;32066;49.474;11.106;2023-07-20T08:50:41;21.00;85.10
46356;DHT22;32066;49.474;11.106;2023-07-20T08:53:12;21.20;83.70
46356;DHT22;32066;49.474;11.106;2023-07-20T08:55:43;21.20;82.60
46356;DHT22;32066;49.474;11.106;2023-07-20T08:58:13;21.40;82.20
46356;DHT22;32066;49.474;11.106;2023-07-20T09:00:45;21.60;82.70
46356;DHT22;32066;49.474;11.106;2023-07-20T09:03:17;21.60;81.30
46356;DHT22;32066;49.474;11.106;2023-07-20T09:05:45;21.60;80.60
46356;DHT22;32066;49.474;11.106;2023-07-20T09:08:14;21.70;79.80
46356;DHT22;32066;49.474;11.106;2023-07-20T09:10:43;21.70;79.40
46356;DHT22;32066;49.474;11.106;2023-07-20T09:13:14;21.70;79.80
46356;DHT22;32066;49.474;11.106;2023-07-20T09:15:53;21.80;80.30
46356;DHT22;32066;49.474;11.106;2023-07-20T09:18:26;21.90;80.10
46356;DHT22;32066;49.474;11.106;2023-07-20T09:20:58;22.00;77.40
46356;DHT22;32066;49.474;11.106;2023-07-20T09:23:32;21.80;76.80
46356;DHT22;32066;49.474;11.106;2023-07-20T09:26:00;21.70;77.40
46356;DHT22;32066;49.474;11.106;2023-07-20T09:28:29;21.70;77.50
46356;DHT22;32066;49.474;11.106;2023-07-20T09:31:15;21.70;77.20
46356;DHT22;32066;49.474;11.106;2023-07-20T09:33:44;21.70;75.70
46356;DHT22;32066;49.474;11.106;2023-07-20T09:36:13;21.80;75.40
46356;DHT22;32066;49.474;11.106;2023-07-20T09:38:43;21.90;75.10
46356;DHT22;32066;49.474;11.106;2023-07-20T09:41:13;21.90;74.70
46356;DHT22;32066;49.474;11.106;2023-07-20T09:43:42;21.80;74.50
46356;DHT22;32066;49.474;11.106;2023-07-20T09:46:14;21.80;75.10
46356;DHT22;32066;49.474;11.106;2023-07-20T09:48:51;21.80;75.20
46356;DHT22;32066;49.474;11.106;2023-07-20T09:51:21;21.80;75.00
46356;DHT22;32066;49.474;11.106;2023-07-20T09:53:52;22.00;74.80
46356;DHT22;32066;49.474;11.106;2023-07-20T09:56:22;22.20;74.20
46356;DHT22;32066;49.474;11.106;2023-07-20T09:58:51;22.20;71.80
46356;DHT22;32066;49.474;11.106;2023-07-20T10:01:23;22.10;72.30
46356;DHT22;32066;49.474;11.106;2023-07-20T10:06:24;21.70;73.40
46356;DHT22;32066;49.474;11.106;2023-07-20T10:08:56;21.80;72.90
46356;DHT22;32066;49.474;11.106;2023-07-20T10:11:31;21.90;71.50
46356;DHT22;32066;49.474;11.106;2023-07-20T10:14:04;22.00;72.60
46356;DHT22;32066;49.474;11.106;2023-07-20T10:16:41;22.10;71.70
46356;DHT22;32066;49.474;11.106;2023-07-20T10:19:17;22.30;66.70
46356;DHT22;32066;49.474;11.106;2023-07-20T10:22:00;22.20;65.90
46356;DHT22;32066;49.474;11.106;2023-07-20T10:24:29;22.30;67.40
46356;DHT22;32066;49.474;11.106;2023-07-20T10:27:00;22.40;68.00
46356;DHT22;32066;49.474;11.106;2023-07-20T10:29:29;22.40;67.60
46356;DHT22;32066;49.474;11.106;2023-07-20T10:32:01;22.30;67.70
46356;DHT22;32066;49.474;11.106;2023-07-20T10:34:30;22.40;67.70
46356;DHT22;32066;49.474;11.106;2023-07-20T10:36:59;22.40;63.70
46356;DHT22;32066;49.474;11.106;2023-07-20T10:39:31;22.60;64.90
46356;DHT22;32066;49.474;11.106;2023-07-20T10:42:00;22.80;65.30
46356;DHT22;32066;49.474;11.106;2023-07-20T10:44:30;22.90;64.20
46356;DHT22;32066;49.474;11.106;2023-07-20T10:47:03;22.80;62.90
46356;DHT22;32066;49.474;11.106;2023-07-20T10:49:33;22.70;63.80
46356;DHT22;32066;49.474;11.106;2023-07-20T10:52:05;22.60;62.30
46356;DHT22;32066;49.474;11.106;2023-07-20T10:54:35;22.80;62.20
46356;DHT22;32066;49.474;11.106;2023-07-20T10:57:27;22.90;61.70
46356;DHT22;32066;49.474;11.106;2023-07-20T11:00:13;22.90;62.60
46356;DHT22;32066;49.474;11.106;2023-07-20T11:02:45;22.90;61.50
46356;DHT22;32066;49.474;11.106;2023-07-20T11:05:35;22.90;62.50
46356;DHT22;32066;49.474;11.106;2023-07-20T11:08:06;22.90;61.30
46356;DHT22;32066;49.474;11.106;2023-07-20T11:10:35;22.80;60.30
46356;DHT22;32066;49.474;11.106;2023-07-20T11:13:17;22.90;61.40
46356;DHT22;32066;49.474;11.106;2023-07-20T11:15:46;23.10;61.20
46356;DHT22;32066;49.474;11.106;2023-07-20T11:18:18;23.20;58.80
46356;DHT22;32066;49.474;11.106;2023-07-20T11:20:50;23.30;57.00
46356;DHT22;32066;49.474;11.106;2023-07-20T11:23:20;23.40;58.10
46356;DHT22;32066;49.474;11.106;2023-07-20T11:25:49;23.50;56.00
46356;DHT22;32066;49.474;11.106;2023-07-20T11:28:18;23.60;55.70
46356;DHT22;32066;49.474;11.106;2023-07-20T11:30:52;23.70;56.60
46356;DHT22;32066;49.474;11.106;2023-07-20T11:33:24;23.90;55.50
46356;DHT22;32066;49.474;11.106;2023-07-20T11:35:53;23.90;54.90
46356;DHT22;32066;49.474;11.106;2023-07-20T11:38:21;23.80;56.20
46356;DHT22;32066;49.474;11.106;2023-07-20T11:40:51;23.70;57.70
46356;DHT22;32066;49.474;11.106;2023-07-20T11:43:20;23.70;57.60
46356;DHT22;32066;49.474;11.106;2023-07-20T11:45:49;23.70;58.00
46356;DHT22;32066;49.474;11.106;2023-07-20T11:48:18;23.90;58.10
46356;DHT22;32066;49.474;11.106;2023-07-20T11:50:49;23.90;57.80
46356;DHT22;32066;49.474;11.106;2023-07-20T11:53:19;24.00;56.90
46356;DHT22;32066;49.474;11.106;2023-07-20T11:55:48;24.10;56.70
46356;DHT22;32066;49.474;11.106;2023-07-20T11:58:17;24.30;56.40
46356;DHT22;32066;49.474;11.106;2023-07-20T12:00:47;24.30;55.50
46356;DHT22;32066;49.474;11.106;2023-07-20T12:03:16;24.10;55.00
46356;DHT22;32066;49.474;11.106;2023-07-20T12:05:48;24.30;55.70
46356;DHT22;32066;49.474;11.106;2023-07-20T12:08:18;24.40;54.80
46356;DHT22;32066;49.474;11.106;2023-07-20T12:10:48;24.40;52.00
46356;DHT22;32066;49.474;11.106;2023-07-20T12:13:17;24.40;50.20
46356;DHT22;32066;49.474;11.106;2023-07-20T12:15:46;24.50;48.70
46356;DHT22;32066;49.474;11.106;2023-07-20T12:18:14;24.50;49.70
46356;DHT22;32066;49.474;11.106;2023-07-20T12:20:43;24.70;49.80
46356;DHT22;32066;49.474;11.106;2023-07-20T12:23:15;24.60;50.30
46356;DHT22;32066;49.474;11.106;2023-07-20T12:25:45;24.50;50.10
46356;DHT22;32066;49.474;11.106;2023-07-20T12:28:16;24.50;49.90
46356;DHT22;32066;49.474;11.106;2023-07-20T12:30:46;24.50;48.20
46356;DHT22;32066;49.474;11.106;2023-07-20T12:33:22;24.70;47.20
46356;DHT22;32066;49.474;11.106;2023-07-20T12:35:50;24.70;48.70
46356;DHT22;32066;49.474;11.106;2023-07-20T12:38:24;24.90;48.80
46356;DHT22;32066;49.474;11.106;2023-07-20T12:40:53;24.90;50.00
46356;DHT22;32066;49.474;11.106;2023-07-20T12:43:22;24.70;50.70
46356;DHT22;32066;49.474;11.106;2023-07-20T12:45:51;24.70;50.10
46356;DHT22;32066;49.474;11.106;2023-07-20T12:48:20;24.90;51.50
46356;DHT22;32066;49.474;11.106;2023-07-20T12:50:49;24.80;52.30
46356;DHT22;32066;49.474;11.106;2023-07-20T12:53:17;24.90;52.20
46356;DHT22;32066;49.474;11.106;2023-07-20T12:55:49;25.10;52.90
46356;DHT22;32066;49.474;11.106;2023-07-20T12:58:18;25.30;52.80
46356;DHT22;32066;49.474;11.106;2023-07-20T13:00:46;25.30;53.10
46356;DHT22;32066;49.474;11.106;2023-07-20T13:03:15;25.50;53.40
46356;DHT22;32066;49.474;11.106;2023-07-20T13:05:45;25.60;53.10
46356;DHT22;32066;49.474;11.106;2023-07-20T13:08:13;25.70;52.90
46356;DHT22;32066;49.474;11.106;2023-07-20T13:10:43;25.60;52.10
46356;DHT22;32066;49.474;11.106;2023-07-20T13:13:15;25.40;52.00
46356;DHT22;32066;49.474;11.106;2023-07-20T13:15:44;25.50;52.40
46356;DHT22;32066;49.474;11.106;2023-07-20T13:18:13;25.70;51.80
46356;DHT22;32066;49.474;11.106;2023-07-20T13:20:42;25.60;50.70
46356;DHT22;32066;49.474;11.106;2023-07-20T13:23:11;25.50;51.60
46356;DHT22;32066;49.474;11.106;2023-07-20T13:25:39;25.30;52.30
46356;DHT22;32066;49.474;11.106;2023-07-20T13:28:08;25.50;51.60
46356;DHT22;32066;49.474;11.106;2023-07-20T13:30:39;25.60;51.70
46356;DHT22;32066;49.474;11.106;2023-07-20T13:33:08;25.80;50.00
46356;DHT22;32066;49.474;11.106;2023-07-20T13:35:37;25.90;50.30
46356;DHT22;32066;49.474;11.106;2023-07-20T13:38:06;25.50;50.20
46356;DHT22;32066;49.474;11.106;2023-07-20T13:40:35;25.70;50.80
46356;DHT22;32066;49.474;11.106;2023-07-20T13:43:04;25.90;50.50
46356;DHT22;32066;49.474;11.106;2023-07-20T13:45:32;25.90;49.20
46356;DHT22;32066;49.474;11.106;2023-07-20T13:48:04;26.00;48.90
46356;DHT22;32066;49.474;11.106;2023-07-20T13:50:32;25.80;48.80
46356;DHT22;32066;49.474;11.106;2023-07-20T13:53:01;25.80;48.40
46356;DHT22;32066;49.474;11.106;2023-07-20T13:55:30;25.70;49.90
46356;DHT22;32066;49.474;11.106;2023-07-20T13:58:02;25.80;50.60
46356;DHT22;32066;49.474;11.106;2023-07-20T14:00:30;25.80;50.00
46356;DHT22;32066;49.474;11.106;2023-07-20T14:03:03;25.70;49.90
46356;DHT22;32066;49.474;11.106;2023-07-20T14:05:31;25.30;49.70
46356;DHT22;32066;49.474;11.106;2023-07-20T14:08:00;25.20;50.40
46356;DHT22;32066;49.474;11.106;2023-07-20T14:10:29;25.20;50.20
46356;DHT22;32066;49.474;11.106;2023-07-20T14:12:57;25.40;49.70
46356;DHT22;32066;49.474;11.106;2023-07-20T14:15:26;25.40;50.10
46356;DHT22;32066;49.474;11.106;2023-07-20T14:17:55;25.70;49.20
46356;DHT22;32066;49.474;11.106;2023-07-20T14:20:26;25.60;49.70
46356;DHT22;32066;49.474;11.106;2023-07-20T14:22:54;25.90;48.90
46356;DHT22;32066;49.474;11.106;2023-07-20T14:25:23;26.20;49.10
46356;DHT22;32066;49.474;11.106;2023-07-20T14:27:52;26.30;49.40
46356;DHT22;32066;49.474;11.106;2023-07-20T14:30:20;26.50;49.10
46356;DHT22;32066;49.474;11.106;2023-07-20T14:32:49;26.80;48.10
46356;DHT22;32066;49.474;11.106;2023-07-20T14:35:17;26.90;46.70
46356;DHT22;32066;49.474;11.106;2023-07-20T15:02:49;26.40;50.70
46356;DHT22;32066;49.474;11.106;2023-07-20T15:05:21;26.50;51.80
46356;DHT22;32066;49.474;11.106;2023-07-20T15:07:53;26.60;57.20
46356;DHT22;32066;49.474;11.106;2023-07-20T15:10:21;26.70;48.70
46356;DHT22;32066;49.474;11.106;2023-07-20T15:12:50;26.80;47.50
46356;DHT22;32066;49.474;11.106;2023-07-20T15:15:19;27.10;46.90
46356;DHT22;32066;49.474;11.106;2023-07-20T15:17:47;27.20;47.10
46356;DHT22;32066;49.474;11.106;2023-07-20T15:20:16;27.20;46.80
46356;DHT22;32066;49.474;11.106;2023-07-20T15:22:45;27.20;46.20
46356;DHT22;32066;49.474;11.106;2023-07-20T15:25:16;26.70;46.70
46356;DHT22;32066;49.474;11.106;2023-07-20T15:27:45;26.70;48.00
46356;DHT22;32066;49.474;11.106;2023-07-20T15:30:14;27.00;55.80
46356;DHT22;32066;49.474;11.106;2023-07-20T15:32:43;27.10;55.80
46356;DHT22;32066;49.474;11.106;2023-07-20T15:35:12;27.30;57.10
46356;DHT22;32066;49.474;11.106;2023-07-20T15:37:40;27.40;55.10
46356;DHT22;32066;49.474;11.106;2023-07-20T15:40:11;27.40;55.00
46356;DHT22;32066;49.474;11.106;2023-07-20T15:42:42;27.10;58.10
46356;DHT22;32066;49.474;11.106;2023-07-20T15:45:11;27.20;62.30
46356;DHT22;32066;49.474;11.106;2023-07-20T15:47:40;27.40;55.00
46356;DHT22;32066;49.474;11.106;2023-07-20T15:50:09;27.40;57.70
46356;DHT22;32066;49.474;11.106;2023-07-20T15:52:38;27.40;58.00
46356;DHT22;32066;49.474;11.106;2023-07-20T15:55:08;27.20;70.30
46356;DHT22;32066;49.474;11.106;2023-07-20T16:00:09;26.70;58.20
46356;DHT22;32066;49.474;11.106;2023-07-20T16:02:38;26.30;48.60
46356;DHT22;32066;49.474;11.106;2023-07-20T16:05:07;26.40;48.00
46356;DHT22;32066;49.474;11.106;2023-07-20T16:07:36;26.50;48.50
46356;DHT22;32066;49.474;11.106;2023-07-20T16:10:06;26.60;48.30
46356;DHT22;32066;49.474;11.106;2023-07-20T16:12:35;26.50;47.60